Time;durP1;ratioP1;P1;durP2;ratioP2;P2;SDS_P1;SDS_P2;PMS_P1;PMS_P2;Temp;Humidity;BMP_temperature;BMP_pressure;BME280_temperature;BME280_humidity;BME280_pressure;Samples;Min_cycle;Max_cycle;Signal;HPM_P1;HPM_P2
2023/12/12 00:01:41;;;;;;;16.37;8.63;;;;;;;5.29;100.00;63482.66;5050896;28;20208;-55
2023/12/12 00:04:07;;;;;;;12.90;8.13;;;;;;;5.46;100.00;63498.13;5051142;28;20567;-54
2023/12/12 00:06:33;;;;;;;16.90;10.37;;;;;;;5.40;100.00;63494.09;5051111;28;20185;-56
2023/12/12 00:08:58;;;;;;;17.63;8.87;;;;;;;5.34;100.00;63487.56;5050848;28;20253;-56
2023/12/12 00:11:24;;;;;;;15.13;9.93;;;;;;;5.30;100.00;63483.19;5033135;28;20715;-61
2023/12/12 00:13:49;;;;;;;20.07;10.03;;;;;;;5.14;100.00;63466.31;5051087;28;20200;-55
2023/12/12 00:16:15;;;;;;;16.27;9.30;;;;;;;5.06;100.00;63457.63;5033377;28;20211;-54
2023/12/12 00:18:41;;;;;;;16.63;9.87;;;;;;;5.02;100.00;63453.28;5050821;28;20216;-54
2023/12/12 00:21:06;;;;;;;18.87;10.03;;;;;;;4.97;100.00;63445.88;5050896;28;20185;-56
2023/12/12 00:23:32;;;;;;;20.63;9.67;;;;;;;5.24;100.00;63471.66;5050516;28;20626;-56
2023/12/12 00:25:58;;;;;;;15.37;9.57;;;;;;;4.94;100.00;63442.06;5050606;28;20200;-55
2023/12/12 00:28:24;;;;;;;16.00;9.50;;;;;;;4.65;100.00;63413.56;5050552;28;20255;-56
2023/12/12 00:30:51;;;;;;;15.63;9.60;;;;;;;4.66;100.00;63414.66;5050648;28;20196;-53
2023/12/12 00:33:17;;;;;;;16.57;8.37;;;;;;;4.89;100.00;63439.66;5050741;28;20217;-53
2023/12/12 00:35:42;;;;;;;16.10;9.53;;;;;;;4.86;100.00;63430.88;5050610;28;20204;-58
2023/12/12 00:38:08;;;;;;;17.20;9.27;;;;;;;5.02;100.00;63453.81;5052895;28;20213;-53
2023/12/12 00:40:34;;;;;;;12.87;8.17;;;;;;;5.13;100.00;63465.78;5054094;28;20181;-55
2023/12/12 00:42:59;;;;;;;16.20;9.27;;;;;;;4.87;100.00;63436.94;5054183;28;20299;-54
2023/12/12 00:45:24;;;;;;;15.17;9.13;;;;;;;4.76;100.00;63424.97;5054044;28;20197;-53
2023/12/12 00:47:50;;;;;;;15.03;8.37;;;;;;;4.90;100.00;63435.78;5054041;28;20247;-54
2023/12/12 00:50:16;;;;;;;15.60;9.70;;;;;;;5.01;100.00;63449.69;5054080;28;20205;-55
2023/12/12 00:52:42;;;;;;;14.67;8.67;;;;;;;4.80;100.00;63429.88;5054300;28;20690;-54
2023/12/12 00:55:08;;;;;;;18.20;9.40;;;;;;;4.90;100.00;63440.75;5053931;28;20185;-54
2023/12/12 00:57:34;;;;;;;15.80;8.93;;;;;;;4.91;100.00;63439.34;5054161;28;20209;-54
2023/12/12 00:59:59;;;;;;;19.17;9.10;;;;;;;4.59;100.00;63404.53;5053882;28;20717;-56
2023/12/12 01:02:25;;;;;;;13.83;8.80;;;;;;;4.44;100.00;63387.69;5054131;28;20626;-54
2023/12/12 01:04:51;;;;;;;18.27;9.80;;;;;;;4.64;100.00;63412.47;5053654;28;20209;-54
2023/12/12 01:07:18;;;;;;;14.00;8.97;;;;;;;5.02;100.00;63453.28;5036026;28;20209;-56
2023/12/12 01:09:45;;;;;;;15.13;9.53;;;;;;;5.25;100.00;63478.31;5053665;28;20215;-55
2023/12/12 01:12:10;;;;;;;15.67;9.63;;;;;;;5.20;100.00;63472.84;5053455;28;20216;-55
2023/12/12 01:14:36;;;;;;;14.27;8.63;;;;;;;4.97;100.00;63445.31;5053562;28;20733;-57
2023/12/12 01:17:03;;;;;;;16.97;8.77;;;;;;;4.65;100.00;63413.56;5053963;28;20248;-57
2023/12/12 01:19:29;;;;;;;17.63;9.33;;;;;;;4.54;100.00;63399.09;5053530;28;20189;-54
2023/12/12 01:21:55;;;;;;;18.13;9.63;;;;;;;4.70;100.00;63415.97;5053813;28;20220;-55
2023/12/12 01:24:20;;;;;;;14.00;8.77;;;;;;;4.93;100.00;63444.00;5053481;28;20584;-56
2023/12/12 01:26:46;;;;;;;15.40;9.60;;;;;;;5.11;100.00;63463.06;5053667;28;20350;-55
2023/12/12 01:29:14;;;;;;;16.23;9.53;;;;;;;5.53;100.00;63505.75;5052055;28;20217;-55
2023/12/12 01:31:40;;;;;;;17.53;9.67;;;;;;;5.40;100.00;63491.59;5053159;28;20231;-54
2023/12/12 01:34:05;;;;;;;18.50;9.30;;;;;;;5.44;100.00;63495.94;5053446;28;20612;-54
2023/12/12 01:36:31;;;;;;;25.30;9.57;;;;;;;5.40;100.00;63491.59;5053241;28;20573;-54
2023/12/12 01:38:57;;;;;;;16.90;9.90;;;;;;;5.62;100.00;63516.09;5053310;28;20603;-53
2023/12/12 01:41:22;;;;;;;15.37;9.87;;;;;;;5.58;100.00;63514.22;5053436;28;20217;-56
2023/12/12 01:43:48;;;;;;;22.10;10.37;;;;;;;5.30;100.00;63481.25;5053048;28;20196;-57
2023/12/12 01:46:17;;;;;;;18.50;10.40;;;;;;;5.21;100.00;63468.97;5053572;28;20189;-55
2023/12/12 01:48:43;;;;;;;16.80;10.87;;;;;;;5.37;100.00;63491.38;5052816;28;20304;-55
2023/12/12 01:51:09;;;;;;;18.03;10.57;;;;;;;5.48;100.00;63502.78;5035118;28;20280;-55
2023/12/12 01:53:43;;;;;;;17.87;10.80;;;;;;;5.40;100.00;63492.13;5052773;28;20232;-54
2023/12/12 01:56:11;;;;;;;22.27;10.77;;;;;;;5.53;100.00;63506.28;5051583;28;20204;-55
2023/12/12 01:58:40;;;;;;;20.87;11.43;;;;;;;5.47;100.00;63504.22;5052645;28;20584;-54
2023/12/12 02:01:05;;;;;;;22.33;13.10;;;;;;;5.49;100.00;63504.44;5052854;28;20190;-56
2023/12/12 02:03:34;;;;;;;28.43;13.63;;;;;;;5.32;100.00;63482.88;5052895;28;20215;-54
2023/12/12 02:06:01;;;;;;;24.30;14.27;;;;;;;5.31;100.00;63482.34;5052861;28;20197;-53
2023/12/12 02:08:27;;;;;;;23.60;13.77;;;;;;;5.25;100.00;63478.31;5052132;28;20332;-53
2023/12/12 02:10:54;;;;;;;25.93;15.30;;;;;;;5.15;100.00;63467.44;5052507;28;20714;-53
2023/12/12 02:13:19;;;;;;;30.13;15.23;;;;;;;5.11;100.00;63463.59;5052555;28;20232;-55
2023/12/12 02:15:45;;;;;;;25.27;15.47;;;;;;;5.24;100.00;63477.22;5034674;28;20615;-60
2023/12/12 02:18:13;;;;;;;29.73;16.37;;;;;;;5.22;100.00;63470.03;5052745;28;20204;-57
2023/12/12 02:20:40;;;;;;;29.67;16.50;;;;;;;5.13;100.00;63462.72;5052377;28;20215;-54
2023/12/12 02:23:05;;;;;;;24.57;14.60;;;;;;;4.85;100.00;63432.25;5052423;28;20190;-54
2023/12/12 02:25:31;;;;;;;30.47;15.60;;;;;;;4.97;100.00;63448.38;5052535;28;20177;-52
2023/12/12 02:27:59;;;;;;;28.97;14.57;;;;;;;4.77;100.00;63426.59;5052758;28;20241;-54
2023/12/12 02:30:24;;;;;;;28.43;15.40;;;;;;;4.88;100.00;63436.09;5052346;28;20205;-53
2023/12/12 02:32:50;;;;;;;27.60;15.20;;;;;;;4.90;100.00;63437.72;5052275;28;20213;-54
2023/12/12 02:35:16;;;;;;;25.40;14.70;;;;;;;5.06;100.00;63457.63;5052514;28;20246;-53
2023/12/12 02:37:41;;;;;;;29.87;14.83;;;;;;;5.24;100.00;63474.16;5052463;28;20275;-54
2023/12/12 02:40:08;;;;;;;25.47;14.37;;;;;;;5.37;100.00;63490.81;5052355;28;20256;-54
2023/12/12 02:42:34;;;;;;;27.43;14.40;;;;;;;5.27;100.00;63478.00;5052197;28;20243;-55
2023/12/12 02:44:59;;;;;;;28.47;15.17;;;;;;;5.26;100.00;63476.34;5034479;28;20636;-56
2023/12/12 02:47:25;;;;;;;27.43;15.63;;;;;;;4.90;100.00;63438.25;5052242;22;20268;-55
2023/12/12 02:49:50;;;;;;;35.40;18.80;;;;;;;4.67;100.00;63413.22;5014340;28;20707;-55
2023/12/12 02:52:16;;;;;;;32.07;18.50;;;;;;;4.47;100.00;63390.94;5024174;28;20230;-53
2023/12/12 02:54:42;;;;;;;37.13;20.40;;;;;;;4.55;100.00;63397.13;5012423;28;20269;-54
2023/12/12 02:57:08;;;;;;;35.27;19.13;;;;;;;4.53;100.00;63400.50;5012457;28;20612;-56
2023/12/12 02:59:33;;;;;;;33.60;18.33;;;;;;;4.71;100.00;63420.06;5011996;28;20317;-55
2023/12/12 03:01:59;;;;;;;34.90;19.03;;;;;;;5.00;100.00;63451.66;4994873;28;20211;-53
2023/12/12 03:04:31;;;;;;;32.03;17.90;;;;;;;5.00;100.00;63449.16;4994665;28;20195;-53
2023/12/12 03:06:57;;;;;;;31.87;18.37;;;;;;;5.00;100.00;63451.66;5012447;28;20299;-53
2023/12/12 03:09:22;;;;;;;32.33;17.53;;;;;;;4.97;100.00;63450.88;5012104;28;20242;-53
2023/12/12 03:11:49;;;;;;;30.67;17.47;;;;;;;5.09;100.00;63458.38;5012091;28;20712;-54
2023/12/12 03:14:15;;;;;;;32.17;18.30;;;;;;;4.95;100.00;63446.19;4994478;28;20191;-52
2023/12/12 03:16:41;;;;;;;28.90;16.40;;;;;;;4.96;100.00;63444.25;5011886;28;20731;-53
2023/12/12 03:19:07;;;;;;;26.80;15.57;;;;;;;5.04;100.00;63456.00;5011959;28;20199;-53
2023/12/12 03:21:32;;;;;;;28.17;15.17;;;;;;;4.97;100.00;63447.81;4994229;28;20252;-53
2023/12/12 03:23:58;;;;;;;26.77;13.97;;;;;;;4.94;100.00;63439.56;5012089;28;20208;-56
2023/12/12 03:26:23;;;;;;;24.00;12.90;;;;;;;4.89;100.00;63436.63;5011791;28;20726;-55
2023/12/12 03:28:49;;;;;;;24.60;13.57;;;;;;;4.70;100.00;63419.00;5011808;28;20222;-55
2023/12/12 03:31:14;;;;;;;23.13;12.90;;;;;;;4.64;100.00;63409.44;5011945;28;20649;-55
2023/12/12 03:33:40;;;;;;;24.20;12.70;;;;;;;4.75;100.00;63421.94;5011792;28;20210;-56
2023/12/12 03:36:09;;;;;;;38.40;14.37;;;;;;;4.28;100.00;63373.84;5011859;28;20285;-56
2023/12/12 03:38:35;;;;;;;25.53;14.40;;;;;;;4.50;100.00;63397.25;5011651;28;20253;-56
2023/12/12 03:41:00;;;;;;;26.17;13.83;;;;;;;4.43;100.00;63387.13;5011621;28;20190;-56
2023/12/12 03:43:26;;;;;;;22.80;13.77;;;;;;;4.18;100.00;63357.47;4993990;28;20215;-60
2023/12/12 03:45:51;;;;;;;26.20;14.57;;;;;;;4.16;100.00;63362.75;5011761;28;20191;-52
2023/12/12 03:48:17;;;;;;;28.60;15.87;;;;;;;4.40;100.00;63383.31;5011773;28;20401;-55
2023/12/12 03:50:43;;;;;;;30.00;14.57;;;;;;;4.44;100.00;63388.22;4993861;28;20187;-55
2023/12/12 03:53:08;;;;;;;30.33;15.43;;;;;;;4.58;100.00;63405.94;5011653;28;20228;-53
2023/12/12 03:55:33;;;;;;;25.77;13.90;;;;;;;4.54;100.00;63401.03;5011648;28;20197;-53
2023/12/12 03:57:59;;;;;;;29.07;16.33;;;;;;;4.45;100.00;63389.31;5011456;28;20241;-53
2023/12/12 04:00:25;;;;;;;26.33;14.03;;;;;;;4.62;100.00;63409.75;5011467;28;20214;-54
2023/12/12 04:02:51;;;;;;;30.33;16.10;;;;;;;4.81;100.00;63427.91;4993830;28;20221;-54
2023/12/12 04:05:17;;;;;;;29.67;14.60;;;;;;;4.99;100.00;63447.50;5011472;28;20179;-53
2023/12/12 04:07:42;;;;;;;27.20;14.37;;;;;;;4.93;100.00;63444.00;5011679;28;20289;-56
2023/12/12 04:10:09;;;;;;;29.47;14.30;;;;;;;5.02;100.00;63451.31;5009959;28;20373;-55
2023/12/12 04:12:35;;;;;;;24.53;14.03;;;;;;;5.04;100.00;63453.50;5010374;28;20256;-55
2023/12/12 04:15:02;;;;;;;26.37;15.00;;;;;;;5.02;100.00;63448.81;5011027;28;20656;-55
2023/12/12 04:17:28;;;;;;;32.67;14.97;;;;;;;5.24;100.00;63472.22;5011266;28;20293;-56
2023/12/12 04:19:54;;;;;;;25.73;13.83;;;;;;;5.05;100.00;63454.56;5011090;28;20668;-54
2023/12/12 04:22:19;;;;;;;24.20;14.00;;;;;;;5.31;100.00;63482.34;5011014;28;20225;-52
2023/12/12 04:24:45;;;;;;;27.43;14.57;;;;;;;5.36;100.00;63487.78;5011211;28;20249;-54
2023/12/12 04:27:11;;;;;;;27.27;13.80;;;;;;;5.46;100.00;63496.16;5011012;28;20214;-56
2023/12/12 04:29:37;;;;;;;27.73;14.90;;;;;;;5.54;100.00;63507.38;4993312;28;20237;-56
2023/12/12 04:32:02;;;;;;;24.97;14.70;;;;;;;5.42;100.00;63494.31;5009559;28;20213;-54
2023/12/12 04:34:32;;;;;;;27.20;14.17;;;;;;;5.59;100.00;63514.78;5010871;28;20186;-55
2023/12/12 04:36:59;;;;;;;24.87;13.93;;;;;;;5.57;100.00;63513.16;5011065;28;20237;-55
2023/12/12 04:39:25;;;;;;;28.33;14.70;;;;;;;5.50;100.00;63499.97;5010631;28;20198;-55
2023/12/12 04:41:51;;;;;;;24.77;13.47;;;;;;;5.66;100.00;63519.91;4993136;28;20357;-54
2023/12/12 04:44:16;;;;;;;24.30;14.43;;;;;;;5.77;100.00;63529.94;5011047;28;20203;-55
2023/12/12 04:46:42;;;;;;;22.53;13.27;;;;;;;5.55;100.00;63508.47;5010584;28;20217;-59
2023/12/12 04:49:07;;;;;;;25.77;13.57;;;;;;;5.39;100.00;63490.50;5010781;28;20211;-55
2023/12/12 04:51:33;;;;;;;25.37;14.37;;;;;;;5.51;100.00;63506.63;5010729;28;20194;-56
2023/12/12 04:53:58;;;;;;;25.97;14.20;;;;;;;5.46;100.00;63500.63;5010674;28;20578;-55
2023/12/12 04:56:24;;;;;;;23.13;14.20;;;;;;;5.47;100.00;63502.25;5010599;28;20687;-58
2023/12/12 04:58:49;;;;;;;22.57;13.13;;;;;;;5.40;100.00;63496.59;5009386;28;20310;-55
2023/12/12 05:01:15;;;;;;;24.37;13.40;;;;;;;5.60;100.00;63515.84;5010686;28;20227;-55
2023/12/12 05:03:41;;;;;;;24.87;13.50;;;;;;;5.65;100.00;63518.81;5010356;28;20207;-54
2023/12/12 05:06:10;;;;;;;24.53;14.17;;;;;;;5.83;100.00;63540.91;5010400;28;20198;-57
2023/12/12 05:08:35;;;;;;;26.50;13.80;;;;;;;5.87;100.00;63545.84;5010158;28;20211;-54
2023/12/12 05:11:01;;;;;;;21.30;12.70;;;;;;;5.82;100.00;63537.31;5010449;28;20202;-55
2023/12/12 05:13:26;;;;;;;24.83;13.33;;;;;;;5.96;100.00;63552.59;5010433;28;20210;-53
2023/12/12 05:15:52;;;;;;;26.17;13.57;;;;;;;5.94;100.00;63550.41;5010400;28;20325;-53
2023/12/12 05:18:18;;;;;;;21.07;11.63;;;;;;;5.82;100.00;63537.88;5009019;28;20217;-53
2023/12/12 05:20:43;;;;;;;25.77;13.63;;;;;;;5.65;100.00;63518.81;5010510;28;20274;-55
2023/12/12 05:23:11;;;;;;;19.33;12.40;;;;;;;5.60;100.00;63513.91;5011156;28;20218;-55
2023/12/12 05:25:36;;;;;;;22.07;11.83;;;;;;;5.58;100.00;63513.69;5013756;28;20197;-54
2023/12/12 05:28:02;;;;;;;23.67;12.23;;;;;;;5.52;100.00;63507.16;5013868;28;20214;-54
2023/12/12 05:30:28;;;;;;;22.70;12.07;;;;;;;5.66;100.00;63519.91;5013691;28;20240;-57
2023/12/12 05:32:53;;;;;;;22.40;12.13;;;;;;;5.77;100.00;63534.38;4995938;28;20302;-55
2023/12/12 05:35:19;;;;;;;21.70;11.30;;;;;;;5.80;100.00;63537.63;5013465;28;20653;-56
2023/12/12 05:37:44;;;;;;;22.73;12.03;;;;;;;5.87;100.00;63545.28;5013850;28;20215;-56
2023/12/12 05:40:14;;;;;;;21.07;12.00;;;;;;;6.15;100.00;63578.28;5013454;28;20191;-56
2023/12/12 05:42:43;;;;;;;21.70;12.70;;;;;;;6.08;100.00;63567.63;5013279;28;20272;-56
2023/12/12 05:45:09;;;;;;;25.67;13.37;;;;;;;6.05;100.00;63562.41;4995766;28;20194;-56
2023/12/12 05:47:35;;;;;;;23.83;14.10;;;;;;;6.00;100.00;63556.94;5013506;28;20229;-53
2023/12/12 05:50:02;;;;;;;25.03;13.17;;;;;;;6.03;100.00;63562.19;5013221;28;20214;-55
2023/12/12 05:52:28;;;;;;;25.00;14.00;;;;;;;6.04;100.00;63563.81;5013355;28;20263;-53
2023/12/12 05:54:54;;;;;;;25.70;14.50;;;;;;;6.26;100.00;63587.78;5012003;28;20574;-54
2023/12/12 05:57:20;;;;;;;27.23;13.50;;;;;;;6.64;100.00;63626.16;5013009;28;20214;-53
2023/12/12 05:59:46;;;;;;;24.93;14.07;;;;;;;6.67;100.00;63632.47;5013231;28;20217;-53
2023/12/12 06:02:12;;;;;;;23.77;13.30;;;;;;;6.59;100.00;63618.75;5013401;28;20231;-54
2023/12/12 06:04:38;;;;;;;26.70;13.80;;;;;;;6.89;100.00;63655.38;5013062;28;20198;-53
2023/12/12 06:07:05;;;;;;;26.83;14.73;;;;;;;6.78;100.00;63644.47;5013182;28;20222;-52
2023/12/12 06:09:31;;;;;;;33.10;13.37;;;;;;;6.70;100.00;63635.19;5012862;28;20229;-53
2023/12/12 06:12:01;;;;;;;25.50;12.80;;;;;;;6.66;100.00;63626.38;4995333;28;20600;-53
2023/12/12 06:14:27;;;;;;;18.70;11.50;;;;;;;6.67;100.00;63629.97;5012822;28;20199;-54
2023/12/12 06:16:53;;;;;;;28.43;13.17;;;;;;;6.63;100.00;63625.59;5012706;28;20690;-53
2023/12/12 06:19:18;;;;;;;23.33;12.10;;;;;;;6.34;100.00;63590.97;5012877;28;20198;-54
2023/12/12 06:21:46;;;;;;;18.50;12.53;;;;;;;6.13;100.00;63571.13;5012990;28;20225;-53
2023/12/12 06:24:12;;;;;;;19.60;11.70;;;;;;;6.21;100.00;63579.28;5012702;28;20193;-54
2023/12/12 06:26:38;;;;;;;20.60;12.03;;;;;;;6.19;100.00;63575.16;5012831;28;20222;-59
2023/12/12 06:29:04;;;;;;;24.87;11.90;;;;;;;6.16;100.00;63574.38;4994969;28;20630;-55
2023/12/12 06:31:31;;;;;;;19.67;10.63;;;;;;;6.22;100.00;63580.38;5011393;28;20199;-54
2023/12/12 06:33:56;;;;;;;21.13;11.07;;;;;;;6.28;100.00;63587.44;5012547;28;20187;-55
2023/12/12 06:36:24;;;;;;;18.83;10.57;;;;;;;6.49;100.00;63612.84;5009751;28;20265;-58
2023/12/12 06:38:49;;;;;;;20.40;11.37;;;;;;;6.55;100.00;63618.84;5010792;28;20539;-56
2023/12/12 06:41:15;;;;;;;24.00;11.80;;;;;;;6.68;100.00;63631.06;5011577;28;20253;-56
2023/12/12 06:43:42;;;;;;;19.67;11.63;;;;;;;6.76;100.00;63641.75;5012207;28;20570;-55
2023/12/12 06:46:08;;;;;;;19.93;11.13;;;;;;;6.98;100.00;63663.22;5012605;28;20719;-57
2023/12/12 06:48:34;;;;;;;20.23;11.63;;;;;;;6.94;100.00;63660.81;5012439;28;20211;-54
2023/12/12 06:50:59;;;;;;;24.47;11.80;;;;;;;6.77;100.00;63640.88;4994680;28;20222;-53
2023/12/12 06:53:25;;;;;;;18.13;10.50;;;;;;;6.90;100.00;63653.94;5012124;28;20273;-53
2023/12/12 06:55:51;;;;;;;24.97;12.53;;;;;;;7.08;100.00;63673.59;5012260;28;20198;-53
2023/12/12 06:58:17;;;;;;;19.83;11.20;;;;;;;7.27;100.00;63691.81;5012315;28;20210;-55
2023/12/12 07:00:43;;;;;;;18.40;10.90;;;;;;;7.51;100.00;63718.53;5012247;28;20187;-55
2023/12/12 07:03:10;;;;;;;20.30;10.90;;;;;;;7.50;100.00;63721.91;5012109;28;20306;-55
2023/12/12 07:05:36;;;;;;;23.80;10.77;;;;;;;7.81;100.00;63755.19;5012023;28;20557;-56
2023/12/12 07:08:04;;;;;;;22.33;11.27;;;;;;;8.21;100.00;63796.91;4994434;28;20250;-54
2023/12/12 07:10:30;;;;;;;23.73;11.63;;;;;;;7.90;100.00;63763.06;5010749;28;20250;-61
2023/12/12 07:12:57;;;;;;;27.07;11.57;;;;;;;8.18;99.57;63793.63;5012282;28;20218;-54
2023/12/12 07:15:25;;;;;;;25.63;14.33;;;;;;;8.27;99.16;63803.47;5012185;28;20687;-55
2023/12/12 07:17:51;;;;;;;19.97;11.73;;;;;;;8.42;94.65;63816.81;4994824;28;20217;-55
2023/12/12 07:20:16;;;;;;;19.40;9.57;;;;;;;8.11;94.18;63785.97;5012018;28;20190;-54
2023/12/12 07:22:43;;;;;;;19.83;10.60;;;;;;;7.88;97.64;63760.88;5012062;28;20207;-53
2023/12/12 07:25:08;;;;;;;23.97;10.70;;;;;;;8.10;95.96;63784.88;5011843;28;20198;-55
2023/12/12 07:27:34;;;;;;;22.53;9.60;;;;;;;8.03;94.93;63779.75;5011645;28;20215;-55
2023/12/12 07:29:59;;;;;;;16.73;9.77;;;;;;;7.77;95.90;63748.31;5011702;28;20734;-56
2023/12/12 07:32:26;;;;;;;16.37;9.43;;;;;;;7.71;97.97;63744.81;5011977;28;20211;-56
2023/12/12 07:34:53;;;;;;;20.17;9.37;;;;;;;7.93;97.60;63768.28;5011409;28;20191;-54
2023/12/12 07:37:19;;;;;;;17.10;10.03;;;;;;;8.32;96.40;63808.41;5011973;28;20203;-53
2023/12/12 07:39:46;;;;;;;36.73;15.47;;;;;;;8.55;96.27;63832.94;5011723;28;20682;-55
2023/12/12 07:42:13;;;;;;;16.00;9.53;;;;;;;9.16;91.90;63899.59;5011812;28;20326;-55
2023/12/12 07:44:39;;;;;;;17.77;9.73;;;;;;;9.36;90.40;63918.94;5011717;28;20209;-53
2023/12/12 07:47:06;;;;;;;16.47;8.90;;;;;;;9.48;90.05;63934.59;5011155;28;20210;-55
2023/12/12 07:49:32;;;;;;;18.10;7.93;;;;;;;9.73;85.20;63961.38;5011566;28;20214;-55
2023/12/12 07:51:57;;;;;;;16.70;9.63;;;;;;;9.44;88.83;63932.72;5010246;28;20688;-55
2023/12/12 07:54:23;;;;;;;18.23;9.07;;;;;;;9.37;89.64;63924.53;5011297;28;20578;-55
2023/12/12 07:56:48;;;;;;;18.17;8.93;;;;;;;9.55;88.09;63942.25;5011633;28;20245;-57
2023/12/12 07:59:14;;;;;;;15.37;9.13;;;;;;;9.69;85.67;63957.56;5011463;28;20190;-56
2023/12/12 08:01:40;;;;;;;19.33;10.57;;;;;;;9.64;86.45;63951.53;5011305;28;20225;-56
2023/12/12 08:04:06;;;;;;;15.13;9.63;;;;;;;9.64;86.64;63952.09;4993592;28;20194;-56
2023/12/12 08:06:33;;;;;;;17.00;9.20;;;;;;;9.83;85.96;63972.88;5011307;28;20187;-55
2023/12/12 08:08:59;;;;;;;19.90;9.67;;;;;;;10.00;85.24;63991.47;5011235;28;20206;-55
2023/12/12 08:11:27;;;;;;;20.13;10.00;;;;;;;10.02;85.10;63996.16;5011363;28;20198;-54
2023/12/12 08:13:54;;;;;;;16.33;9.87;;;;;;;10.15;83.76;64007.34;5011271;28;20195;-57
2023/12/12 08:16:20;;;;;;;17.70;9.23;;;;;;;10.43;81.50;64037.97;5011280;28;20195;-53
2023/12/12 08:18:45;;;;;;;13.93;9.07;;;;;;;10.50;81.33;64048.16;5011297;28;20187;-54
2023/12/12 08:21:11;;;;;;;17.57;9.13;;;;;;;11.49;75.35;64152.97;5011151;28;20214;-55
2023/12/12 08:23:37;;;;;;;16.00;9.37;;;;;;;11.88;72.03;64193.19;5011103;28;20214;-53
2023/12/12 08:26:05;;;;;;;17.23;10.27;;;;;;;12.02;72.01;64210.53;5011363;28;20575;-53
2023/12/12 08:28:31;;;;;;;21.07;10.13;;;;;;;12.62;68.30;64276.31;5010908;28;20210;-56
2023/12/12 08:30:56;;;;;;;18.93;9.87;;;;;;;12.70;66.31;64284.53;5010909;28;20202;-55
2023/12/12 08:33:22;;;;;;;17.93;10.20;;;;;;;13.00;67.79;64315.47;5010990;28;20217;-55
2023/12/12 08:35:47;;;;;;;19.30;9.47;;;;;;;13.10;66.42;64331.50;5010962;28;20187;-56
2023/12/12 08:38:13;;;;;;;18.20;9.97;;;;;;;12.59;68.88;64270.47;5011032;28;20213;-56
2023/12/12 08:40:38;;;;;;;17.83;8.27;;;;;;;12.29;68.99;64240.66;5010892;28;20229;-55
2023/12/12 08:43:06;;;;;;;22.03;9.70;;;;;;;12.23;69.51;64233.53;5011061;28;20211;-55
2023/12/12 08:45:32;;;;;;;17.83;9.13;;;;;;;12.68;67.76;64280.34;5010634;28;20194;-58
2023/12/12 08:47:58;;;;;;;19.07;9.90;;;;;;;12.60;67.95;64269.06;5011093;28;20206;-56
2023/12/12 08:50:23;;;;;;;21.20;9.10;;;;;;;12.33;70.05;64240.00;5011131;28;20214;-54
2023/12/12 08:52:49;;;;;;;20.93;11.80;;;;;;;11.91;71.51;64198.44;5011025;28;20207;-54
2023/12/12 08:55:15;;;;;;;25.17;13.37;;;;;;;11.73;72.24;64176.75;5010708;28;20186;-54
2023/12/12 08:57:41;;;;;;;27.00;13.67;;;;;;;11.48;73.27;64149.34;5010687;28;20286;-53
2023/12/12 09:00:10;;;;;;;24.70;13.90;;;;;;;11.30;75.27;64134.66;5014528;28;20287;-53
2023/12/12 09:02:37;;;;;;;29.60;14.00;;;;;;;11.13;76.06;64114.06;5014466;28;20287;-54
2023/12/12 09:05:04;;;;;;;25.40;13.13;;;;;;;11.62;74.79;64164.66;5014010;28;20725;-55
2023/12/12 09:07:29;;;;;;;24.33;13.73;;;;;;;11.51;76.37;64152.63;4996463;28;20214;-54
2023/12/12 09:09:55;;;;;;;22.67;13.27;;;;;;;11.61;74.87;64163.59;5014158;28;20214;-55
2023/12/12 09:12:21;;;;;;;25.30;12.33;;;;;;;11.64;74.66;64171.91;5014035;28;20313;-56
2023/12/12 09:14:54;;;;;;;24.77;10.83;;;;;;;11.55;76.08;64159.53;4996587;28;20210;-55
2023/12/12 09:17:19;;;;;;;18.47;10.90;;;;;;;11.37;76.43;64140.34;5013963;28;20215;-57
2023/12/12 09:19:45;;;;;;;25.17;10.23;;;;;;;11.33;76.14;64135.97;5014017;28;20191;-55
2023/12/12 09:22:11;;;;;;;16.67;9.90;;;;;;;11.18;77.49;64116.47;4996208;28;20333;-55
2023/12/12 09:24:36;;;;;;;18.37;9.40;;;;;;;11.08;78.08;64106.06;5013762;28;20187;-57
2023/12/12 09:27:03;;;;;;;14.93;8.20;;;;;;;11.01;77.89;64100.91;5014116;28;20211;-53
2023/12/12 09:29:29;;;;;;;17.57;9.40;;;;;;;10.65;79.81;64059.00;5013705;28;20207;-54
2023/12/12 09:31:54;;;;;;;16.40;9.30;;;;;;;10.64;80.17;64058.47;5013842;28;20218;-52
2023/12/12 09:34:20;;;;;;;14.80;7.80;;;;;;;10.95;79.01;64096.88;5013767;28;20226;-56
2023/12/12 09:36:46;;;;;;;15.60;9.43;;;;;;;10.96;79.96;64093.50;5013896;28;20268;-56
2023/12/12 09:39:12;;;;;;;18.70;7.90;;;;;;;10.75;80.73;64069.94;5013490;28;20206;-55
2023/12/12 09:41:38;;;;;;;16.30;7.90;;;;;;;10.78;79.75;64075.75;4995752;28;20614;-56
2023/12/12 09:44:05;;;;;;;17.00;7.70;;;;;;;10.92;79.21;64088.56;5013577;28;20183;-55
2023/12/12 09:46:32;;;;;;;16.80;8.30;;;;;;;10.93;78.58;64089.63;4995836;28;20191;-56
2023/12/12 09:49:00;;;;;;;13.73;8.10;;;;;;;10.95;78.03;64092.38;5013478;28;20226;-54
2023/12/12 09:51:25;;;;;;;17.40;8.33;;;;;;;11.20;78.45;64119.22;5013413;28;20281;-55
2023/12/12 09:53:54;;;;;;;14.20;7.43;;;;;;;11.93;76.22;64201.19;5013517;28;20262;-55
2023/12/12 09:56:19;;;;;;;17.57;7.70;;;;;;;13.26;70.67;64344.00;4996136;28;20199;-55
2023/12/12 09:58:47;;;;;;;20.40;8.73;;;;;;;13.54;65.85;64371.66;5013299;28;20731;-56
2023/12/12 10:01:14;;;;;;;19.43;7.40;;;;;;;13.87;64.23;64412.41;5013336;28;20199;-56
2023/12/12 10:03:40;;;;;;;19.63;8.73;;;;;;;13.72;64.42;64395.94;5013017;28;20214;-56
2023/12/12 10:06:08;;;;;;;14.30;6.67;;;;;;;13.28;64.32;64346.22;5013045;28;20186;-56
2023/12/12 10:08:38;;;;;;;19.13;7.60;;;;;;;13.03;65.43;64318.75;5013069;28;20721;-55
2023/12/12 10:11:06;;;;;;;19.03;7.97;;;;;;;12.61;67.04;64273.22;5012109;28;20199;-54
2023/12/12 10:13:54;;;;;;;14.47;8.17;;;;;;;12.53;69.11;64266.97;5013218;28;20222;-54
2023/12/12 10:16:21;;;;;;;16.73;7.90;;;;;;;12.79;68.78;64291.84;5013166;28;20195;-57
2023/12/12 10:18:47;;;;;;;13.63;6.30;;;;;;;12.87;67.52;64303.72;5012893;28;20707;-55
2023/12/12 10:21:22;;;;;;;16.33;5.93;;;;;;;12.49;69.17;64262.59;5012292;28;20599;-58
2023/12/12 10:23:53;;;;;;;11.43;5.80;;;;;;;12.49;69.85;64262.03;4994827;28;20699;-57
2023/12/12 10:26:29;;;;;;;16.40;7.43;;;;;;;12.47;71.22;64257.31;5012798;28;20198;-56
2023/12/12 10:28:56;;;;;;;19.93;7.97;;;;;;;12.18;72.84;64223.53;5012943;28;20688;-56
2023/12/12 10:31:25;;;;;;;13.77;5.43;;;;;;;12.35;71.20;64247.25;5012970;28;20222;-55
2023/12/12 10:33:51;;;;;;;14.20;4.77;;;;;;;12.21;72.21;64228.81;5012625;28;20217;-55
2023/12/12 10:36:18;;;;;;;5.87;3.60;;;;;;;12.01;72.21;64206.88;5012652;28;20277;-55
2023/12/12 10:38:44;;;;;;;6.40;3.90;;;;;;;11.99;72.63;64204.69;5012566;28;20194;-55
2023/12/12 10:41:21;;;;;;;6.43;3.03;;;;;;;11.85;73.88;64192.44;4994835;28;20203;-55
2023/12/12 10:43:47;;;;;;;5.40;2.80;;;;;;;11.61;73.48;64163.59;5012719;28;20194;-55
2023/12/12 10:46:15;;;;;;;6.77;2.47;;;;;;;11.58;74.09;64163.38;5012340;28;20202;-57
2023/12/12 10:48:46;;;;;;;6.37;2.63;;;;;;;11.47;74.56;64148.78;5012107;28;20234;-56
2023/12/12 10:51:13;;;;;;;7.10;3.27;;;;;;;11.52;75.95;64154.28;5012371;28;20191;-55
2023/12/12 10:53:44;;;;;;;5.67;3.37;;;;;;;11.37;78.13;64134.78;5012411;28;20202;-56
2023/12/12 10:56:11;;;;;;;5.63;3.73;;;;;;;11.31;76.11;64133.25;5012561;28;20244;-54
2023/12/12 10:58:41;;;;;;;7.17;4.10;;;;;;;11.26;77.90;64128.31;4994815;28;20261;-55
2023/12/12 11:01:13;;;;;;;8.30;4.53;;;;;;;11.26;78.38;64125.22;5012554;28;20311;-55
2023/12/12 11:03:38;;;;;;;6.67;3.43;;;;;;;11.15;78.34;64113.72;4994530;28;20218;-54
2023/12/12 11:06:05;;;;;;;8.10;3.83;;;;;;;11.21;79.28;64120.31;5012402;28;20198;-55
2023/12/12 11:08:31;;;;;;;7.93;3.63;;;;;;;11.21;78.54;64122.28;5012110;28;20214;-55
2023/12/12 11:11:01;;;;;;;8.87;3.90;;;;;;;11.12;79.60;64110.47;5011893;28;20352;-55
2023/12/12 11:13:30;;;;;;;6.60;4.27;;;;;;;11.14;78.30;64112.66;5010907;28;20251;-55
2023/12/12 11:15:59;;;;;;;12.47;3.87;;;;;;;11.22;78.47;64126.44;5011383;28;20212;-54
2023/12/12 11:18:24;;;;;;;6.43;3.97;;;;;;;11.21;78.49;64122.81;5011414;28;20206;-53